createdAt,value
2022-09-06T00:00:30.133Z,6.10
2022-09-06T00:01:30.122Z,6.14
2022-09-06T00:02:30.139Z,6.25
2022-09-06T00:03:30.103Z,6.30
2022-09-06T00:04:30.168Z,6.36
2022-09-06T00:05:30.072Z,6.43
2022-09-06T00:06:30.077Z,6.47
2022-09-06T00:07:30.065Z,6.54
2022-09-06T00:08:30.051Z,6.61
2022-09-06T00:09:30.037Z,6.65
2022-09-06T00:10:30.062Z,6.69
2022-09-06T00:11:30.016Z,6.76
2022-09-06T00:12:30.005Z,6.80
2022-09-06T00:13:29.997Z,6.83
2022-09-06T00:14:29.984Z,6.87
2022-09-06T00:15:30.015Z,6.91
2022-09-06T00:16:30.673Z,6.95
2022-09-06T00:17:29.955Z,6.97
2022-09-06T00:18:29.947Z,7.01
2022-09-06T00:19:29.937Z,7.01
2022-09-06T00:20:29.927Z,6.89
2022-09-06T00:21:29.918Z,6.77
2022-09-06T00:22:29.944Z,6.71
2022-09-06T00:23:29.896Z,6.66
2022-09-06T00:24:29.889Z,6.65
2022-09-06T00:25:29.871Z,6.63
2022-09-06T00:26:29.866Z,6.63
2022-09-06T00:27:29.848Z,6.62
2022-09-06T00:28:29.872Z,6.61
2022-09-06T00:29:29.828Z,6.61
2022-09-06T00:30:29.821Z,6.62
2022-09-06T00:31:29.845Z,6.62
2022-09-06T00:32:29.802Z,6.59
2022-09-06T00:33:29.793Z,6.54
2022-09-06T00:34:29.808Z,6.56
2022-09-06T00:35:29.775Z,6.54
2022-09-06T00:36:29.758Z,6.51
2022-09-06T00:37:29.747Z,6.53
2022-09-06T00:38:29.741Z,6.54
2022-09-06T00:39:29.774Z,6.56
2022-09-06T00:40:29.741Z,6.51
2022-09-06T00:41:29.711Z,6.50
2022-09-06T00:42:29.700Z,6.47
2022-09-06T00:43:29.681Z,6.43
2022-09-06T00:44:29.681Z,6.38
2022-09-06T00:45:29.671Z,6.40
2022-09-06T00:46:29.728Z,6.35
2022-09-06T00:47:29.642Z,6.35
2022-09-06T00:48:29.634Z,6.33
2022-09-06T00:49:29.623Z,6.38
2022-09-06T00:50:29.616Z,6.38
2022-09-06T00:51:29.602Z,6.35
2022-09-06T00:52:29.633Z,6.35
2022-09-06T00:53:29.584Z,6.36
2022-09-06T00:54:29.575Z,6.38
2022-09-06T00:55:29.563Z,6.40
2022-09-06T00:56:29.563Z,6.41
2022-09-06T00:57:29.543Z,6.43
2022-09-06T00:58:29.567Z,6.46
2022-09-06T00:59:29.523Z,6.46
2022-09-06T01:00:29.517Z,6.43
2022-09-06T01:01:29.601Z,6.43
2022-09-06T01:02:29.628Z,6.43
2022-09-06T01:03:29.485Z,6.40
2022-09-06T01:04:29.505Z,6.35
2022-09-06T01:05:29.465Z,6.33
2022-09-06T01:06:29.455Z,6.29
2022-09-06T01:07:29.438Z,6.22
2022-09-06T01:08:29.435Z,6.19
2022-09-06T01:09:29.419Z,6.13
2022-09-06T01:10:29.436Z,6.11
2022-09-06T01:11:29.396Z,6.04
2022-09-06T01:12:29.396Z,6.03
2022-09-06T01:13:29.379Z,6.03
2022-09-06T01:14:29.374Z,5.96
2022-09-06T01:15:29.403Z,5.91
2022-09-06T01:16:29.388Z,5.89
2022-09-06T01:17:29.339Z,5.89
2022-09-06T01:18:29.346Z,5.86
2022-09-06T01:19:29.319Z,5.91
2022-09-06T01:20:29.319Z,5.89
2022-09-06T01:21:29.299Z,5.88
2022-09-06T01:22:29.329Z,5.89
2022-09-06T01:23:29.279Z,5.89
2022-09-06T01:24:29.272Z,5.86
2022-09-06T01:25:29.257Z,5.83
2022-09-06T01:26:29.251Z,5.78
2022-09-06T01:27:29.240Z,5.73
2022-09-06T01:28:29.271Z,5.68
2022-09-06T01:29:29.220Z,5.63
2022-09-06T01:30:29.213Z,5.57
2022-09-06T01:31:29.243Z,5.52
2022-09-06T01:32:29.189Z,5.48
2022-09-06T01:33:29.180Z,5.40
2022-09-06T01:34:29.202Z,5.35
2022-09-06T01:35:29.161Z,5.35
2022-09-06T01:36:29.151Z,5.34
2022-09-06T01:37:29.139Z,5.32
2022-09-06T01:38:29.134Z,5.32
2022-09-06T01:39:29.161Z,5.34
2022-09-06T01:40:29.145Z,5.35
2022-09-06T01:41:29.108Z,5.40
2022-09-06T01:42:29.092Z,5.40
2022-09-06T01:43:29.084Z,5.41
2022-09-06T01:44:29.073Z,5.37
2022-09-06T01:45:29.062Z,5.35
2022-09-06T01:46:29.126Z,5.37
2022-09-06T01:47:29.049Z,5.40
2022-09-06T01:48:29.033Z,5.45
2022-09-06T01:49:29.018Z,5.45
2022-09-06T01:50:29.015Z,5.43
2022-09-06T01:51:29.023Z,5.30
2022-09-06T01:52:29.028Z,5.16
2022-09-06T01:53:29.018Z,5.07
2022-09-06T01:54:28.985Z,5.01
2022-09-06T01:55:28.955Z,4.99
2022-09-06T01:56:28.956Z,4.94
2022-09-06T01:57:28.945Z,4.94
2022-09-06T01:58:28.982Z,4.95
2022-09-06T01:59:28.924Z,4.95
2022-09-06T02:00:28.918Z,4.98
2022-09-06T02:01:28.946Z,5.02
2022-09-06T02:02:28.933Z,5.05
2022-09-06T02:03:28.881Z,5.09
2022-09-06T02:04:28.928Z,5.13
2022-09-06T02:05:28.861Z,5.17
2022-09-06T02:06:28.855Z,5.22
2022-09-06T02:07:28.844Z,5.28
2022-09-06T02:08:28.936Z,5.34
2022-09-06T02:09:28.820Z,5.37
2022-09-06T02:10:28.838Z,5.31
2022-09-06T02:11:28.797Z,5.19
2022-09-06T02:12:28.804Z,5.04
2022-09-06T02:13:28.779Z,4.98
2022-09-06T02:14:28.769Z,4.94
2022-09-06T02:15:28.757Z,4.91
2022-09-06T02:16:28.826Z,4.89
2022-09-06T02:17:28.740Z,4.92
2022-09-06T02:18:28.895Z,4.95
2022-09-06T02:19:28.711Z,4.96
2022-09-06T02:20:28.701Z,4.99
2022-09-06T02:21:28.700Z,5.01
2022-09-06T02:22:28.725Z,4.98
2022-09-06T02:23:28.672Z,4.92
2022-09-06T02:24:28.665Z,4.80
2022-09-06T02:25:28.659Z,4.75
2022-09-06T02:26:28.644Z,4.70
2022-09-06T02:27:30.733Z,4.69
2022-09-06T02:28:28.792Z,4.69
2022-09-06T02:29:28.614Z,4.69
2022-09-06T02:30:28.652Z,4.70
2022-09-06T02:31:28.593Z,4.75
2022-09-06T02:32:28.580Z,4.75
2022-09-06T02:33:28.585Z,4.70
2022-09-06T02:34:28.605Z,4.58
2022-09-06T02:35:28.554Z,4.46
2022-09-06T02:36:28.544Z,4.37
2022-09-06T02:37:28.539Z,4.33
2022-09-06T02:38:28.645Z,4.33
2022-09-06T02:39:28.563Z,4.33
2022-09-06T02:40:28.531Z,4.39
2022-09-06T02:41:28.502Z,4.39
2022-09-06T02:42:28.484Z,4.42
2022-09-06T02:43:28.477Z,4.42
2022-09-06T02:44:28.456Z,4.42
2022-09-06T02:45:28.458Z,4.40
2022-09-06T02:46:28.518Z,4.36
2022-09-06T02:47:28.437Z,4.34
2022-09-06T02:48:28.461Z,4.32
2022-09-06T02:49:28.416Z,4.33
2022-09-06T02:50:28.396Z,4.34
2022-09-06T02:51:28.395Z,4.37
2022-09-06T02:52:28.406Z,4.40
2022-09-06T02:53:28.369Z,4.44
2022-09-06T02:54:28.354Z,4.51
2022-09-06T02:55:28.348Z,4.54
2022-09-06T02:56:28.335Z,4.58
2022-09-06T02:57:28.329Z,4.55
2022-09-06T02:58:28.506Z,4.57
2022-09-06T02:59:28.298Z,4.58
2022-09-06T03:00:28.298Z,4.61
2022-09-06T03:01:28.341Z,4.62
2022-09-06T03:02:28.334Z,4.62
2022-09-06T03:03:28.268Z,4.59
2022-09-06T03:04:28.299Z,4.57
2022-09-06T03:05:28.248Z,4.57
2022-09-06T03:06:28.239Z,4.58
2022-09-06T03:07:28.227Z,4.54
2022-09-06T03:08:28.339Z,4.43
2022-09-06T03:09:28.201Z,4.29
2022-09-06T03:10:28.222Z,4.25
2022-09-06T03:11:28.188Z,4.22
2022-09-06T03:12:28.178Z,4.21
2022-09-06T03:13:28.173Z,4.24
2022-09-06T03:14:28.152Z,4.28
2022-09-06T03:15:28.141Z,4.32
2022-09-06T03:16:28.206Z,4.37
2022-09-06T03:17:28.129Z,4.43
2022-09-06T03:18:28.236Z,4.50
2022-09-06T03:19:28.102Z,4.57
2022-09-06T03:20:28.090Z,4.62
2022-09-06T03:21:28.082Z,4.64
2022-09-06T03:22:28.100Z,4.61
2022-09-06T03:23:28.063Z,4.55
2022-09-06T03:24:28.050Z,4.52
2022-09-06T03:25:28.047Z,4.52
2022-09-06T03:26:28.031Z,4.52
2022-09-06T03:27:28.024Z,4.52
2022-09-06T03:28:28.202Z,4.55
2022-09-06T03:29:28.004Z,4.50
2022-09-06T03:30:28.005Z,4.50
2022-09-06T03:31:27.982Z,4.46
2022-09-06T03:32:27.975Z,4.34
2022-09-06T03:33:27.966Z,4.36
2022-09-06T03:34:27.975Z,4.33
2022-09-06T03:35:27.934Z,4.36
2022-09-06T03:36:27.925Z,4.39
2022-09-06T03:37:27.917Z,4.42
2022-09-06T03:38:28.043Z,4.37
2022-09-06T03:39:27.925Z,4.32
2022-09-06T03:40:27.916Z,4.28
2022-09-06T03:41:27.877Z,4.18
2022-09-06T03:42:27.863Z,4.15
2022-09-06T03:43:27.857Z,4.12
2022-09-06T03:44:27.845Z,4.10
2022-09-06T03:45:27.836Z,4.08
2022-09-06T03:46:27.854Z,4.03
2022-09-06T03:47:27.776Z,3.96
2022-09-06T03:48:27.862Z,3.90
2022-09-06T03:49:27.745Z,3.90
2022-09-06T03:50:27.726Z,3.97
2022-09-06T03:51:27.777Z,3.97
2022-09-06T03:52:27.738Z,4.06
2022-09-06T03:53:27.705Z,4.07
2022-09-06T03:54:27.695Z,4.14
2022-09-06T03:55:27.679Z,4.16
2022-09-06T03:56:27.667Z,4.22
2022-09-06T03:57:27.659Z,4.24
2022-09-06T03:58:27.714Z,4.26
2022-09-06T03:59:27.641Z,4.33
2022-09-06T04:00:27.619Z,4.37
2022-09-06T04:01:27.671Z,4.44
2022-09-06T04:02:27.618Z,4.51
2022-09-06T04:03:27.597Z,4.54
2022-09-06T04:04:27.651Z,4.59
2022-09-06T04:05:27.583Z,4.65
2022-09-06T04:06:27.560Z,4.67
2022-09-06T04:07:27.559Z,4.69
2022-09-06T04:08:27.650Z,4.65
2022-09-06T04:09:27.540Z,4.59
2022-09-06T04:10:27.562Z,4.58
2022-09-06T04:11:27.511Z,4.51
2022-09-06T04:12:27.509Z,4.51
2022-09-06T04:13:27.500Z,4.54
2022-09-06T04:14:27.481Z,4.59
2022-09-06T04:15:27.471Z,4.62
2022-09-06T04:16:27.549Z,4.61
2022-09-06T04:17:27.452Z,4.52
2022-09-06T04:18:27.524Z,4.34
2022-09-06T04:19:27.433Z,4.22
2022-09-06T04:20:27.426Z,4.18
2022-09-06T04:21:27.422Z,4.18
2022-09-06T04:22:27.423Z,4.22
2022-09-06T04:23:27.396Z,4.26
2022-09-06T04:24:27.380Z,4.33
2022-09-06T04:25:27.371Z,4.40
2022-09-06T04:26:27.362Z,4.50
2022-09-06T04:27:27.355Z,4.57
2022-09-06T04:28:27.426Z,4.62
2022-09-06T04:29:27.340Z,4.70
2022-09-06T04:30:27.325Z,4.77
2022-09-06T04:31:27.330Z,4.84
2022-09-06T04:32:27.304Z,4.89
2022-09-06T04:33:27.299Z,4.94
2022-09-06T04:34:27.304Z,4.98
2022-09-06T04:35:27.274Z,5.02
2022-09-06T04:36:27.263Z,5.05
2022-09-06T04:37:27.257Z,5.07
2022-09-06T04:38:27.403Z,5.02
2022-09-06T04:39:27.250Z,5.01
2022-09-06T04:40:27.254Z,5.01
2022-09-06T04:41:27.206Z,5.02
2022-09-06T04:42:27.201Z,5.05
2022-09-06T04:43:27.191Z,5.10
2022-09-06T04:44:27.178Z,5.14
2022-09-06T04:45:27.230Z,5.19
2022-09-06T04:46:27.179Z,5.25
2022-09-06T04:47:27.148Z,5.28
2022-09-06T04:48:27.200Z,5.34
2022-09-06T04:49:27.129Z,5.40
2022-09-06T04:50:27.115Z,5.46
2022-09-06T04:51:27.106Z,5.50
2022-09-06T04:52:30.223Z,5.55
2022-09-06T04:53:27.088Z,5.59
2022-09-06T04:54:27.076Z,5.67
2022-09-06T04:55:27.060Z,5.71
2022-09-06T04:56:27.051Z,5.75
2022-09-06T04:57:27.051Z,5.85
2022-09-06T04:58:27.215Z,5.88
2022-09-06T04:59:27.020Z,5.89
2022-09-06T05:00:27.011Z,5.93
2022-09-06T05:01:27.056Z,5.95
2022-09-06T05:02:27.097Z,6.00
2022-09-06T05:03:26.982Z,6.01
2022-09-06T05:04:27.010Z,6.06
2022-09-06T05:05:26.971Z,6.11
2022-09-06T05:06:26.945Z,6.14
2022-09-06T05:07:26.941Z,6.19
2022-09-06T05:08:26.945Z,6.25
2022-09-06T05:09:26.922Z,6.30
2022-09-06T05:10:27.392Z,6.32
2022-09-06T05:11:26.901Z,6.36
2022-09-06T05:12:26.893Z,6.36
2022-09-06T05:13:26.883Z,6.36
2022-09-06T05:14:26.871Z,6.33
2022-09-06T05:15:26.864Z,6.30
2022-09-06T05:16:26.953Z,6.30
2022-09-06T05:17:26.843Z,6.30
2022-09-06T05:18:26.976Z,6.32
2022-09-06T05:19:26.827Z,6.32
2022-09-06T05:20:26.814Z,6.33
2022-09-06T05:21:26.804Z,6.33
2022-09-06T05:22:26.815Z,6.36
2022-09-06T05:23:26.782Z,6.38
2022-09-06T05:24:26.773Z,6.40
2022-09-06T05:25:26.765Z,6.40
2022-09-06T05:26:26.753Z,6.40
2022-09-06T05:27:26.746Z,6.38
2022-09-06T05:28:26.841Z,6.40
2022-09-06T05:29:30.498Z,6.40
2022-09-06T05:30:26.706Z,6.38
2022-09-06T05:31:26.743Z,6.36
2022-09-06T05:32:26.687Z,6.38
2022-09-06T05:33:26.687Z,6.35
2022-09-06T05:34:26.699Z,6.33
2022-09-06T05:35:26.660Z,6.35
2022-09-06T05:36:26.649Z,6.32
2022-09-06T05:37:26.655Z,6.32
2022-09-06T05:38:29.623Z,6.32
2022-09-06T05:39:26.661Z,6.32
2022-09-06T05:40:26.638Z,6.30
2022-09-06T05:41:26.607Z,6.29
2022-09-06T05:42:26.590Z,6.28
2022-09-06T05:43:26.578Z,6.25
2022-09-06T05:44:26.578Z,6.22
2022-09-06T05:45:26.596Z,6.21
2022-09-06T05:46:26.589Z,6.18
2022-09-06T05:47:26.548Z,6.14
2022-09-06T05:48:26.540Z,6.13
2022-09-06T05:49:26.521Z,6.16
2022-09-06T05:50:26.513Z,6.18
2022-09-06T05:51:26.533Z,6.25
2022-09-06T05:52:26.526Z,6.28
2022-09-06T05:53:26.480Z,6.32
2022-09-06T05:54:26.470Z,6.33
2022-09-06T05:55:26.462Z,6.35
2022-09-06T05:56:26.451Z,6.40
2022-09-06T05:57:26.442Z,6.41
2022-09-06T05:58:26.525Z,6.44
2022-09-06T05:59:26.422Z,6.46
2022-09-06T06:00:26.410Z,6.50
2022-09-06T06:01:26.488Z,6.54
2022-09-06T06:02:26.420Z,6.59
2022-09-06T06:03:26.383Z,6.65
2022-09-06T06:04:26.394Z,6.69
2022-09-06T06:05:26.365Z,6.76
2022-09-06T06:06:26.343Z,6.83
2022-09-06T06:07:26.341Z,6.89
2022-09-06T06:08:26.367Z,6.97
2022-09-06T06:09:26.321Z,7.02
2022-09-06T06:10:26.333Z,7.08
2022-09-06T06:11:26.303Z,7.13
2022-09-06T06:12:26.285Z,7.19
2022-09-06T06:13:26.275Z,7.23
2022-09-06T06:14:26.267Z,7.31
2022-09-06T06:15:26.265Z,7.37
2022-09-06T06:16:26.340Z,7.42
2022-09-06T06:17:26.236Z,7.49
2022-09-06T06:18:26.303Z,7.56
2022-09-06T06:19:26.216Z,7.60
2022-09-06T06:20:26.209Z,7.69
2022-09-06T06:21:26.198Z,7.74
2022-09-06T06:22:26.215Z,7.81
2022-09-06T06:23:26.175Z,7.89
2022-09-06T06:24:26.169Z,7.94
2022-09-06T06:25:26.161Z,7.97
2022-09-06T06:26:26.139Z,7.99
2022-09-06T06:27:26.130Z,8.04
2022-09-06T06:28:26.196Z,8.15
2022-09-06T06:29:26.117Z,8.18
2022-09-06T06:30:26.099Z,8.26
2022-09-06T06:31:26.147Z,8.33
2022-09-06T06:32:26.549Z,8.40
2022-09-06T06:33:26.073Z,8.50
2022-09-06T06:34:26.090Z,8.57
2022-09-06T06:35:26.047Z,8.66
2022-09-06T06:36:26.041Z,8.73
2022-09-06T06:37:26.027Z,8.81
2022-09-06T06:38:26.021Z,8.88
2022-09-06T06:39:26.050Z,8.96
2022-09-06T06:40:26.032Z,9.01
2022-09-06T06:41:25.987Z,9.06
2022-09-06T06:42:25.981Z,9.15
2022-09-06T06:43:25.969Z,9.21
2022-09-06T06:44:25.959Z,9.25
2022-09-06T06:45:26.030Z,9.34
2022-09-06T06:46:25.972Z,9.45
2022-09-06T06:47:25.933Z,9.57
2022-09-06T06:48:25.972Z,9.66
2022-09-06T06:49:25.911Z,9.75
2022-09-06T06:50:25.956Z,9.82
2022-09-06T06:51:25.892Z,9.89
2022-09-06T06:52:25.915Z,9.97
2022-09-06T06:53:25.864Z,10.04
2022-09-06T06:54:25.854Z,10.14
2022-09-06T06:55:25.846Z,10.21
2022-09-06T06:56:25.836Z,10.32
2022-09-06T06:57:25.824Z,10.42
2022-09-06T06:58:25.951Z,10.52
2022-09-06T06:59:25.814Z,10.62
2022-09-06T07:00:28.230Z,10.71
2022-09-06T07:01:25.918Z,10.81
2022-09-06T07:02:25.850Z,10.91
2022-09-06T07:03:25.772Z,11.01
2022-09-06T07:04:25.785Z,11.10
2022-09-06T07:08:25.757Z,11.53
2022-09-06T07:09:26.080Z,11.64
2022-09-06T07:10:33.131Z,11.75
2022-09-06T07:11:26.682Z,11.83
2022-09-06T07:12:25.672Z,11.94
2022-09-06T07:13:25.691Z,12.04
2022-09-06T07:14:25.651Z,12.12
2022-09-06T07:15:25.637Z,12.24
2022-09-06T07:16:25.753Z,12.38
2022-09-06T07:17:25.624Z,12.48
2022-09-06T07:18:25.620Z,12.60
2022-09-06T07:20:26.726Z,12.85
2022-09-06T07:21:40.822Z,12.99
2022-09-06T07:22:26.600Z,13.09
2022-09-06T07:24:26.550Z,13.29
2022-09-06T07:25:25.541Z,13.38
2022-09-06T07:26:25.532Z,13.52
2022-09-06T07:28:26.534Z,13.74
2022-09-06T07:29:25.504Z,13.89
2022-09-06T07:30:25.494Z,14.04
2022-09-06T07:32:26.465Z,14.34
2022-09-06T07:33:25.539Z,14.47
2022-09-06T07:34:25.474Z,14.65
2022-09-06T07:35:25.426Z,14.68
2022-09-06T07:36:25.426Z,14.69
2022-09-06T07:37:25.407Z,14.83
2022-09-06T07:38:25.399Z,14.99
2022-09-06T07:39:25.474Z,15.06
2022-09-06T07:40:25.407Z,15.20
2022-09-06T07:41:25.369Z,15.35
2022-09-06T07:42:25.369Z,15.45
2022-09-06T07:43:25.350Z,15.54
2022-09-06T07:44:25.339Z,15.67
2022-09-06T07:45:25.340Z,15.84
2022-09-06T07:46:25.393Z,15.99
2022-09-06T07:48:26.372Z,16.16
2022-09-06T07:49:25.304Z,16.31
2022-09-06T07:51:26.292Z,16.60
2022-09-06T07:53:30.878Z,16.86
2022-09-06T07:54:30.531Z,16.90
2022-09-06T07:55:26.235Z,16.96
2022-09-06T07:56:25.214Z,17.13
2022-09-06T07:57:25.234Z,17.29
2022-09-06T07:58:25.193Z,17.41
2022-09-06T07:59:25.185Z,17.54
2022-09-06T08:00:25.178Z,17.70
2022-09-06T08:01:25.166Z,17.84
2022-09-06T08:02:25.211Z,17.95
2022-09-06T08:03:25.174Z,18.09
2022-09-06T08:04:25.137Z,18.19
2022-09-06T08:06:26.115Z,18.39
2022-09-06T08:07:40.707Z,18.42
2022-09-06T08:09:26.081Z,18.55
2022-09-06T08:10:25.075Z,18.67
2022-09-06T08:11:25.050Z,18.79
2022-09-06T08:12:25.049Z,18.92
2022-09-06T08:13:25.042Z,19.02
2022-09-06T08:14:25.059Z,19.14
2022-09-06T08:15:25.017Z,19.21
2022-09-06T08:16:25.104Z,19.25
2022-09-06T08:17:24.991Z,19.24
2022-09-06T08:18:25.000Z,19.17
2022-09-06T08:19:24.980Z,19.24
2022-09-06T08:20:25.011Z,19.36
2022-09-06T08:21:24.981Z,19.46
2022-09-06T08:22:24.953Z,19.42
2022-09-06T08:23:24.937Z,19.50
2022-09-06T08:24:24.931Z,19.57
2022-09-06T08:25:24.915Z,19.69
2022-09-06T08:26:24.934Z,19.80
2022-09-06T08:27:24.891Z,19.94
2022-09-06T08:28:28.580Z,20.05
2022-09-06T08:29:24.884Z,20.13
2022-09-06T08:30:24.868Z,20.20
2022-09-06T08:31:24.923Z,20.25
2022-09-06T08:32:24.893Z,20.13
2022-09-06T08:33:24.836Z,20.18
2022-09-06T08:34:24.831Z,20.21
2022-09-06T08:35:24.805Z,19.94
2022-09-06T08:36:24.798Z,19.84
2022-09-06T08:37:25.257Z,19.90
2022-09-06T08:38:24.820Z,19.79
2022-09-06T08:39:24.838Z,19.91
2022-09-06T08:40:24.760Z,20.08
2022-09-06T08:41:24.774Z,20.15
2022-09-06T08:42:24.742Z,20.24
2022-09-06T08:43:24.729Z,20.18
2022-09-06T08:45:25.710Z,20.23
2022-09-06T08:46:24.747Z,20.35
2022-09-06T08:47:24.684Z,20.50
2022-09-06T08:48:24.688Z,20.61
2022-09-06T08:49:24.682Z,20.71
2022-09-06T08:50:24.685Z,20.89
2022-09-06T08:51:24.645Z,21.06
2022-09-06T08:52:24.648Z,21.23
2022-09-06T08:53:24.625Z,21.21
2022-09-06T08:54:24.623Z,21.29
2022-09-06T08:55:24.613Z,21.32
2022-09-06T08:56:24.624Z,21.21
2022-09-06T08:57:24.586Z,21.14
2022-09-06T08:58:24.634Z,21.29
2022-09-06T08:59:24.576Z,21.39
2022-09-06T09:00:24.700Z,21.46
2022-09-06T09:01:24.540Z,21.51
2022-09-06T09:02:24.622Z,21.56
2022-09-06T09:03:24.529Z,21.60
2022-09-06T09:04:24.518Z,21.60
2022-09-06T09:05:24.501Z,21.67
2022-09-06T09:06:24.504Z,21.72
2022-09-06T09:07:24.473Z,21.71
2022-09-06T09:08:24.499Z,21.01
2022-09-06T09:09:24.469Z,20.66
2022-09-06T09:10:24.452Z,20.66
2022-09-06T09:11:24.434Z,20.83
2022-09-06T09:12:24.434Z,21.01
2022-09-06T09:13:24.416Z,21.17
2022-09-06T09:14:24.434Z,21.30
2022-09-06T09:15:24.396Z,21.41
2022-09-06T09:16:24.428Z,21.05
2022-09-06T09:17:24.384Z,20.39
2022-09-06T09:18:24.370Z,19.79
2022-09-06T09:19:24.367Z,19.54
2022-09-06T09:20:24.377Z,19.70
2022-09-06T09:21:28.237Z,19.90
2022-09-06T09:22:25.327Z,20.08
2022-09-06T09:23:24.325Z,20.16
2022-09-06T09:24:24.310Z,20.33
2022-09-06T09:25:24.296Z,20.42
2022-09-06T09:26:24.331Z,20.18
2022-09-06T09:27:24.276Z,20.20
2022-09-06T09:28:24.330Z,20.23
2022-09-06T09:29:28.205Z,20.28
2022-09-06T09:31:25.292Z,20.42
2022-09-06T09:32:24.231Z,20.42
2022-09-06T09:33:24.253Z,20.53
2022-09-06T09:34:24.211Z,20.62
2022-09-06T09:35:24.191Z,20.59
2022-09-06T09:36:24.192Z,20.49
2022-09-06T09:38:25.168Z,20.42
2022-09-06T09:39:24.188Z,20.47
2022-09-06T09:40:24.152Z,20.51
2022-09-06T09:41:24.135Z,20.53
2022-09-06T09:42:24.126Z,20.54
2022-09-06T09:43:24.138Z,20.33
2022-09-06T09:44:24.108Z,20.08
2022-09-06T09:45:24.089Z,19.54
2022-09-06T09:46:24.127Z,19.55
2022-09-06T09:47:24.075Z,19.53
2022-09-06T09:48:24.112Z,19.38
2022-09-06T09:49:24.086Z,19.48
2022-09-06T09:50:24.053Z,19.31
2022-09-06T09:51:26.975Z,19.21
2022-09-06T09:52:24.028Z,19.08
2022-09-06T09:53:24.014Z,19.25
2022-09-06T09:54:24.001Z,19.46
2022-09-06T09:55:24.022Z,19.60
2022-09-06T09:56:23.984Z,19.75
2022-09-06T09:57:23.972Z,19.84
2022-09-06T09:58:24.001Z,19.91
2022-09-06T09:59:23.961Z,20.03
2022-09-06T10:00:23.989Z,20.18
2022-09-06T10:01:23.964Z,20.30
2022-09-06T10:02:23.923Z,20.42
2022-09-06T10:03:23.985Z,20.49
2022-09-06T10:05:24.888Z,20.54
2022-09-06T10:07:24.890Z,19.80
2022-09-06T10:08:23.921Z,19.66
2022-09-06T10:09:23.857Z,19.75
2022-09-06T10:10:23.838Z,19.84
2022-09-06T10:11:23.836Z,19.88
2022-09-06T10:12:23.819Z,19.60
2022-09-06T10:13:23.849Z,19.53
2022-09-06T10:14:23.807Z,19.68
2022-09-06T10:15:23.792Z,19.88
2022-09-06T10:16:23.828Z,20.06
2022-09-06T10:17:23.773Z,20.33
2022-09-06T10:18:23.813Z,20.43
2022-09-06T10:19:23.780Z,20.59
2022-09-06T10:20:23.744Z,20.66
2022-09-06T10:21:23.724Z,20.59
2022-09-06T10:22:23.725Z,20.28
2022-09-06T10:25:23.687Z,19.75
2022-09-06T10:26:23.686Z,19.73
2022-09-06T10:27:23.663Z,19.94
2022-09-06T10:28:23.776Z,20.25
2022-09-06T10:29:23.654Z,20.33
2022-09-06T10:30:23.673Z,20.10
2022-09-06T10:31:23.704Z,19.75
2022-09-06T10:32:23.617Z,19.65
2022-09-06T10:33:23.605Z,19.80
2022-09-06T10:34:23.597Z,19.43
2022-09-06T10:35:23.593Z,19.53
2022-09-06T10:36:23.598Z,19.50
2022-09-06T10:37:23.569Z,19.73
2022-09-06T10:38:23.702Z,19.98
2022-09-06T10:39:23.599Z,20.24
2022-09-06T10:40:23.540Z,20.27
2022-09-06T10:41:23.531Z,20.03
2022-09-06T10:42:23.552Z,19.97
2022-09-06T10:43:23.501Z,20.18
2022-09-06T10:44:23.501Z,20.23
2022-09-06T10:45:23.491Z,20.38
2022-09-06T10:46:23.520Z,20.41
2022-09-06T10:47:23.465Z,20.51
2022-09-06T10:48:23.492Z,20.65
2022-09-06T10:49:23.451Z,20.80
2022-09-06T10:50:23.424Z,21.05
2022-09-06T10:51:23.433Z,21.32
2022-09-06T10:52:23.420Z,21.57
2022-09-06T10:53:23.416Z,21.81
2022-09-06T10:54:23.432Z,22.06
2022-09-06T10:55:23.383Z,22.27
2022-09-06T10:56:23.367Z,22.39
2022-09-06T10:58:24.369Z,22.59
2022-09-06T10:59:39.030Z,22.67
2022-09-06T11:00:24.367Z,22.35
2022-09-06T11:01:23.357Z,22.28
2022-09-06T11:02:23.552Z,22.35
2022-09-06T11:04:24.293Z,22.60
2022-09-06T11:05:38.777Z,22.86
2022-09-06T11:06:26.750Z,23.11
2022-09-06T11:07:23.253Z,23.17
2022-09-06T11:09:24.254Z,22.75
2022-09-06T11:10:23.223Z,22.62
2022-09-06T11:11:23.267Z,22.34
2022-09-06T11:12:23.334Z,21.42
2022-09-06T11:13:23.224Z,21.08
2022-09-06T11:14:23.191Z,21.32
2022-09-06T11:15:23.176Z,21.50
2022-09-06T11:16:23.200Z,21.13
2022-09-06T11:17:23.156Z,20.93
2022-09-06T11:18:23.238Z,21.21
2022-09-06T11:19:23.148Z,21.59
2022-09-06T11:20:23.120Z,21.81
2022-09-06T11:21:23.108Z,22.06
2022-09-06T11:22:23.189Z,21.95
2022-09-06T11:23:23.207Z,21.63
2022-09-06T11:24:23.109Z,21.53
2022-09-06T11:25:23.070Z,21.32
2022-09-06T11:26:23.056Z,21.27
2022-09-06T11:27:23.053Z,21.30
2022-09-06T11:28:23.051Z,21.20
2022-09-06T11:29:23.054Z,21.19
2022-09-06T11:30:23.040Z,21.06
2022-09-06T11:32:23.992Z,21.56
2022-09-06T11:33:23.144Z,21.90
2022-09-06T11:34:22.993Z,22.01
2022-09-06T11:35:22.975Z,21.85
2022-09-06T11:36:23.005Z,21.41
2022-09-06T11:37:22.947Z,21.69
2022-09-06T11:38:22.938Z,22.04
2022-09-06T11:41:22.909Z,23.01
2022-09-06T11:42:22.927Z,23.22
2022-09-06T11:43:22.911Z,22.87
2022-09-06T11:44:22.908Z,22.28
2022-09-06T11:45:22.869Z,22.04
2022-09-06T11:46:22.889Z,22.20
2022-09-06T11:47:22.849Z,21.94
2022-09-06T11:48:22.860Z,21.81
2022-09-06T11:49:22.842Z,21.75
2022-09-06T11:50:22.832Z,22.01
2022-09-06T11:51:22.810Z,22.44
2022-09-06T11:52:22.802Z,22.57
2022-09-06T11:53:22.822Z,22.56
2022-09-06T11:54:22.813Z,21.69
2022-09-06T11:55:23.041Z,21.54
2022-09-06T11:56:22.764Z,21.79
2022-09-06T11:57:22.744Z,21.66
2022-09-06T11:58:22.752Z,21.42
2022-09-06T11:59:22.745Z,21.42
2022-09-06T12:00:22.745Z,21.60
2022-09-06T12:01:22.726Z,21.38
2022-09-06T12:02:22.780Z,21.01
2022-09-06T12:04:23.687Z,20.91
2022-09-06T12:05:22.677Z,21.34
2022-09-06T12:06:22.689Z,21.78
2022-09-06T12:07:22.659Z,22.12
2022-09-06T12:08:22.730Z,22.09
2022-09-06T12:09:22.651Z,22.06
2022-09-06T12:10:22.618Z,21.01
2022-09-06T12:11:22.610Z,20.27
2022-09-06T12:12:22.641Z,19.83
2022-09-06T12:13:22.592Z,20.16
2022-09-06T12:14:22.582Z,20.46
2022-09-06T12:15:22.571Z,20.31
2022-09-06T12:16:22.594Z,20.09
2022-09-06T12:17:22.544Z,20.13
2022-09-06T12:18:22.652Z,20.51
2022-09-06T12:19:22.543Z,20.74
2022-09-06T12:20:22.517Z,20.69
2022-09-06T12:21:22.505Z,20.69
2022-09-06T12:22:22.493Z,20.50
2022-09-06T12:23:22.495Z,20.24
2022-09-06T12:24:22.515Z,20.10
2022-09-06T12:25:22.466Z,19.63
2022-09-06T12:26:22.466Z,19.21
2022-09-06T12:27:22.448Z,18.92
2022-09-06T12:28:22.435Z,18.77
2022-09-06T12:29:22.439Z,18.62
2022-09-06T12:30:22.438Z,18.49
2022-09-06T12:31:22.425Z,18.50
2022-09-06T12:32:22.390Z,18.54
2022-09-06T12:33:22.413Z,18.50
2022-09-06T12:34:22.369Z,18.94
2022-09-06T12:36:23.392Z,19.58
2022-09-06T12:37:22.349Z,19.94
2022-09-06T12:38:22.359Z,20.24
2022-09-06T12:39:22.331Z,20.53
2022-09-06T12:40:22.312Z,20.68
2022-09-06T12:41:22.302Z,20.66
2022-09-06T12:42:22.313Z,20.54
2022-09-06T12:43:22.281Z,19.97
2022-09-06T12:44:22.276Z,19.66
2022-09-06T12:45:27.044Z,19.38
2022-09-06T12:46:23.259Z,19.11
2022-09-06T12:47:22.239Z,18.83
2022-09-06T12:48:22.255Z,18.61
2022-09-06T12:49:22.236Z,18.57
2022-09-06T12:50:22.208Z,18.50
2022-09-06T12:51:22.208Z,18.49
2022-09-06T12:52:22.189Z,18.49
2022-09-06T12:53:23.371Z,18.46
2022-09-06T12:54:22.207Z,18.39
2022-09-06T12:55:22.174Z,18.34
2022-09-06T12:56:22.165Z,18.24
2022-09-06T12:57:22.160Z,18.15
2022-09-06T12:58:22.266Z,18.15
2022-09-06T12:59:22.163Z,18.33
2022-09-06T13:00:22.135Z,18.44
2022-09-06T13:01:22.217Z,18.62
2022-09-06T13:02:22.282Z,18.76
2022-09-06T13:03:22.072Z,18.55
2022-09-06T13:04:22.064Z,18.31
2022-09-06T13:05:22.053Z,18.17
2022-09-06T13:06:26.576Z,18.00
2022-09-06T13:07:23.024Z,17.84
2022-09-06T13:08:22.027Z,17.70
2022-09-06T13:09:22.025Z,17.64
2022-09-06T13:10:22.006Z,17.62
2022-09-06T13:11:21.992Z,17.59
2022-09-06T13:12:22.005Z,17.55
2022-09-06T13:13:21.975Z,17.51
2022-09-06T13:14:21.966Z,17.48
2022-09-06T13:15:21.948Z,17.48
2022-09-06T13:16:22.034Z,17.54
2022-09-06T13:17:21.936Z,17.50
2022-09-06T13:18:22.025Z,17.43
2022-09-06T13:19:21.927Z,17.41
2022-09-06T13:20:21.900Z,17.50
2022-09-06T13:21:21.880Z,17.81
2022-09-06T13:22:21.870Z,17.85
2022-09-06T13:23:21.873Z,17.74
2022-09-06T13:24:21.879Z,17.79
2022-09-06T13:25:21.853Z,17.87
2022-09-06T13:26:21.833Z,17.95
2022-09-06T13:27:21.832Z,18.22
2022-09-06T13:28:21.811Z,18.43
2022-09-06T13:29:21.813Z,18.59
2022-09-06T13:30:21.821Z,18.72
2022-09-06T13:31:21.854Z,18.80
2022-09-06T13:32:21.774Z,18.90
2022-09-06T13:33:21.765Z,18.99